createdAt,value
2018-11-01T00:01:12.107Z,97550.89
2018-11-01T00:03:41.554Z,97558.12
2018-11-01T00:06:11.367Z,97557.84
2018-11-01T00:09:00.202Z,97545.18
2018-11-01T00:11:29.876Z,97549.84
2018-11-01T00:14:18.763Z,97546.09
2018-11-01T00:16:48.604Z,97549.64
2018-11-01T00:19:18.639Z,97548.11
2018-11-01T00:21:49.644Z,97557.69
2018-11-01T00:24:19.454Z,97557.19
2018-11-01T00:26:49.336Z,97558.55
2018-11-01T00:29:18.811Z,97559.18
2018-11-01T00:31:48.601Z,97565.91
2018-11-01T00:34:37.060Z,97572.83
2018-11-01T00:37:25.724Z,97572.91
2018-11-01T00:39:55.167Z,97569.54
2018-11-01T00:42:44.730Z,97567.98
2018-11-01T00:45:14.570Z,97570.61
2018-11-01T00:47:44.361Z,97571.94
2018-11-01T00:50:15.031Z,97562.16
2018-11-01T00:53:03.447Z,97559.38
2018-11-01T00:55:51.875Z,97555.81
2018-11-01T00:58:21.879Z,97554.14
2018-11-01T01:00:51.376Z,97555.50
2018-11-01T01:03:20.824Z,97554.33
2018-11-01T01:05:50.338Z,97556.47
2018-11-01T01:08:19.857Z,97553.80
2018-11-01T01:10:49.629Z,97539.25
2018-11-01T01:13:19.819Z,97534.92
2018-11-01T01:15:49.936Z,97532.27
2018-11-01T01:18:19.695Z,97532.47
2018-11-01T01:20:49.416Z,97536.80
2018-11-01T01:23:19.149Z,97535.70
2018-11-01T01:25:49.290Z,97530.59
2018-11-01T01:28:19.267Z,97529.36
2018-11-01T01:30:48.964Z,97523.87
2018-11-01T01:33:18.711Z,97529.47
2018-11-01T01:35:48.860Z,97525.48
2018-11-01T01:38:18.911Z,97522.34
2018-11-01T01:40:48.346Z,97518.70
2018-11-01T01:43:18.711Z,97499.40
2018-11-01T01:45:48.156Z,97495.80
2018-11-01T01:48:17.591Z,97495.25
2018-11-01T01:50:47.299Z,97503.80
2018-11-01T01:53:16.969Z,97507.16
2018-11-01T01:55:46.476Z,97501.59
2018-11-01T01:58:15.933Z,97492.72
2018-11-01T02:00:45.623Z,97502.06
2018-11-01T02:03:15.404Z,97498.67
2018-11-01T02:05:45.493Z,97493.58
2018-11-01T02:08:15.286Z,97503.83
2018-11-01T02:10:45.092Z,97501.56
2018-11-01T02:13:15.021Z,97494.72
2018-11-01T02:15:44.461Z,97487.57
2018-11-01T02:18:14.178Z,97487.30
2018-11-01T02:20:43.684Z,97489.25
2018-11-01T02:23:13.202Z,97479.52
2018-11-01T02:25:42.640Z,97466.34
2018-11-01T02:28:18.984Z,97476.86
2018-11-01T02:30:48.714Z,97475.23
2018-11-01T02:33:18.177Z,97479.77
2018-11-01T02:35:48.334Z,97479.17
2018-11-01T02:38:17.953Z,97476.48
2018-11-01T02:40:47.917Z,97464.41
2018-11-01T02:43:17.367Z,97460.30
2018-11-01T02:45:47.503Z,97456.63
2018-11-01T02:48:17.544Z,97460.63
2018-11-01T02:50:47.012Z,97453.30
2018-11-01T02:53:16.764Z,97454.36
2018-11-01T02:55:46.600Z,97446.35
2018-11-01T02:58:16.840Z,97436.39
2018-11-01T03:00:46.967Z,97431.52
2018-11-01T03:03:16.895Z,97431.58
2018-11-01T03:05:46.680Z,97428.89
2018-11-01T03:08:16.828Z,97423.22
2018-11-01T03:10:46.315Z,97408.73
2018-11-01T03:13:16.101Z,97407.13
2018-11-01T03:15:46.351Z,97415.33
2018-11-01T03:18:16.463Z,97424.04
2018-11-01T03:20:46.609Z,97431.97
2018-11-01T03:23:16.131Z,97443.19
2018-11-01T03:25:45.628Z,97450.25
2018-11-01T03:28:15.377Z,97449.91
2018-11-01T03:30:45.224Z,97443.62
2018-11-01T03:33:15.005Z,97458.22
2018-11-01T03:35:44.532Z,97456.89
2018-11-01T03:38:14.442Z,97454.12
2018-11-01T03:40:44.522Z,97461.16
2018-11-01T03:43:14.384Z,97464.78
2018-11-01T03:45:44.042Z,97460.88
2018-11-01T03:48:13.866Z,97451.96
2018-11-01T03:50:43.363Z,97446.66
2018-11-01T03:53:13.130Z,97441.73
2018-11-01T03:55:42.800Z,97450.61
2018-11-01T03:58:12.261Z,97446.50
2018-11-01T04:00:41.704Z,97435.41
2018-11-01T04:03:11.836Z,97417.20
2018-11-01T04:05:41.560Z,97434.05
2018-11-01T04:08:12.116Z,97433.50
2018-11-01T04:10:41.570Z,97428.77
2018-11-01T04:13:12.029Z,97430.22
2018-11-01T04:15:41.480Z,97419.52
2018-11-01T04:18:11.271Z,97426.04
2018-11-01T04:20:41.128Z,97434.20
2018-11-01T04:23:11.368Z,97445.65
2018-11-01T04:25:40.777Z,97438.30
2018-11-01T04:28:10.732Z,97435.38
2018-11-01T04:30:40.880Z,97421.59
2018-11-01T04:33:11.028Z,97420.77
2018-11-01T04:35:41.141Z,97414.04
2018-11-01T04:38:10.599Z,97413.89
2018-11-01T04:40:40.470Z,97403.06
2018-11-01T04:43:09.905Z,97407.95
2018-11-01T04:45:39.701Z,97403.06
2018-11-01T04:48:09.822Z,97402.80
2018-11-01T04:50:39.282Z,97394.05
2018-11-01T04:53:08.796Z,97395.28
2018-11-01T04:55:39.017Z,97396.47
2018-11-01T04:58:08.479Z,97392.93
2018-11-01T05:00:38.944Z,97394.34
2018-11-01T05:03:08.393Z,97395.34
2018-11-01T05:05:38.588Z,97398.89
2018-11-01T05:08:08.147Z,97408.39
2018-11-01T05:10:37.552Z,97408.72
2018-11-01T05:13:07.293Z,97407.02
2018-11-01T05:15:37.135Z,97391.56
2018-11-01T05:18:06.671Z,97385.25
2018-11-01T05:20:36.131Z,97397.20
2018-11-01T05:23:05.893Z,97403.23
2018-11-01T05:25:35.675Z,97392.55
2018-11-01T05:28:05.120Z,97375.77
2018-11-01T05:30:34.638Z,97364.87
2018-11-01T05:33:04.502Z,97354.75
2018-11-01T05:35:33.959Z,97349.33
2018-11-01T05:38:03.445Z,97345.68
2018-11-01T05:40:33.284Z,97341.13
2018-11-01T05:43:03.345Z,97331.14
2018-11-01T05:45:33.210Z,97323.89
2018-11-01T05:48:03.523Z,97329.39
2018-11-01T05:50:33.045Z,97326.20
2018-11-01T05:53:03.297Z,97323.61
2018-11-01T05:55:32.779Z,97325.08
2018-11-01T05:58:03.189Z,97329.87
2018-11-01T06:00:32.983Z,97338.08
2018-11-01T06:03:02.764Z,97336.80
2018-11-01T06:05:32.276Z,97344.92
2018-11-01T06:08:06.150Z,97351.53
2018-11-01T06:10:35.925Z,97350.11
2018-11-01T06:13:05.790Z,97356.08
2018-11-01T06:15:35.666Z,97346.69
2018-11-01T06:18:05.482Z,97346.79
2018-11-01T06:20:35.359Z,97345.92
2018-11-01T06:23:04.795Z,97352.20
2018-11-01T06:25:34.305Z,97344.87
2018-11-01T06:28:03.761Z,97329.31
2018-11-01T06:30:33.293Z,97336.01
2018-11-01T06:33:02.925Z,97345.96
2018-11-01T06:35:47.075Z,97330.81
2018-11-01T06:38:16.534Z,97325.20
2018-11-01T06:40:46.368Z,97312.58
2018-11-01T06:43:16.137Z,97304.69
2018-11-01T06:45:45.596Z,97306.05
2018-11-01T06:48:15.493Z,97308.66
2018-11-01T06:50:44.947Z,97306.86
2018-11-01T06:53:14.389Z,97316.88
2018-11-01T06:55:44.188Z,97322.45
2018-11-01T06:58:13.646Z,97324.60
2018-11-01T07:00:43.076Z,97333.16
2018-11-01T07:03:13.213Z,97321.17
2018-11-01T07:05:43.029Z,97305.80
2018-11-01T07:08:12.758Z,97301.14
2018-11-01T07:10:42.507Z,97308.81
2018-11-01T07:13:13.042Z,97321.38
2018-11-01T07:15:42.464Z,97349.16
2018-11-01T07:18:11.930Z,97364.13
2018-11-01T07:20:42.134Z,97378.66
2018-11-01T07:23:11.862Z,97380.19
2018-11-01T07:25:41.742Z,97385.42
2018-11-01T07:28:11.142Z,97381.22
2018-11-01T07:30:40.578Z,97371.05
2018-11-01T07:33:29.215Z,97354.52
2018-11-01T07:35:58.698Z,97363.94
2018-11-01T07:38:47.650Z,97358.63
2018-11-01T07:41:17.458Z,97363.13
2018-11-01T07:43:46.882Z,97378.17
2018-11-01T07:46:35.347Z,97380.97
2018-11-01T07:49:04.788Z,97374.05
2018-11-01T07:51:35.105Z,97363.82
2018-11-01T07:54:04.796Z,97362.19
2018-11-01T07:56:34.246Z,97371.72
2018-11-01T07:59:03.702Z,97386.73
2018-11-01T08:01:33.696Z,97396.83
2018-11-01T08:04:04.074Z,97405.64
2018-11-01T08:06:33.805Z,97395.43
2018-11-01T08:09:04.731Z,97398.34
2018-11-01T08:11:34.587Z,97376.09
2018-11-01T08:14:04.327Z,97366.38
2018-11-01T08:16:33.818Z,97355.67
2018-11-01T08:19:03.829Z,97369.33
2018-11-01T08:21:33.359Z,97356.98
2018-11-01T08:24:03.581Z,97370.64
2018-11-01T08:26:33.865Z,97374.34
2018-11-01T08:29:03.352Z,97379.44
2018-11-01T08:31:33.472Z,97377.80
2018-11-01T08:34:03.222Z,97367.92
2018-11-01T08:36:32.723Z,97373.84
2018-11-01T08:39:03.337Z,97384.91
2018-11-01T08:41:33.656Z,97395.13
2018-11-01T08:44:03.139Z,97388.05
2018-11-01T08:46:33.284Z,97406.61
2018-11-01T08:49:02.764Z,97404.56
2018-11-01T08:51:32.579Z,97408.13
2018-11-01T08:54:02.026Z,97414.70
2018-11-01T08:56:31.464Z,97412.67
2018-11-01T08:59:00.931Z,97408.18
2018-11-01T09:01:30.696Z,97437.27
2018-11-01T09:04:00.935Z,97431.70
2018-11-01T09:06:30.753Z,97439.66
2018-11-01T09:09:00.221Z,97440.39
2018-11-01T09:11:30.057Z,97453.50
2018-11-01T09:13:59.523Z,97457.52
2018-11-01T09:16:29.306Z,97464.66
2018-11-01T09:18:59.032Z,97458.59
2018-11-01T09:21:28.856Z,97453.19
2018-11-01T09:23:58.297Z,97453.97
2018-11-01T09:26:28.075Z,97440.34
2018-11-01T09:28:58.056Z,97434.55
2018-11-01T09:31:27.546Z,97439.45
2018-11-01T09:33:56.980Z,97436.06
2018-11-01T09:36:26.479Z,97440.41
2018-11-01T09:38:56.175Z,97426.70
2018-11-01T09:41:25.668Z,97412.59
2018-11-01T09:43:55.853Z,97411.41
2018-11-01T09:46:26.210Z,97414.51
2018-11-01T09:48:55.864Z,97416.70
2018-11-01T09:51:26.240Z,97417.37
2018-11-01T09:53:55.724Z,97434.45
2018-11-01T09:56:25.595Z,97457.86
2018-11-01T09:58:54.968Z,97461.34
2018-11-01T10:01:24.835Z,97454.47
2018-11-01T10:03:54.578Z,97428.20
2018-11-01T10:06:24.329Z,97412.32
2018-11-01T10:08:53.842Z,97397.53
2018-11-01T10:11:23.284Z,97383.19
2018-11-01T10:13:53.017Z,97377.31
2018-11-01T10:16:22.593Z,97368.91
2018-11-01T10:18:52.288Z,97372.70
2018-11-01T10:21:22.603Z,97375.67
2018-11-01T10:23:52.011Z,97376.10
2018-11-01T10:26:23.031Z,97371.39
2018-11-01T10:28:52.547Z,97376.45
2018-11-01T10:31:23.043Z,97383.04
2018-11-01T10:33:53.072Z,97384.00
2018-11-01T10:36:22.495Z,97371.63
2018-11-01T10:38:51.939Z,97356.44
2018-11-01T10:41:21.970Z,97361.16
2018-11-01T10:43:51.901Z,97371.55
2018-11-01T10:46:22.063Z,97367.89
2018-11-01T10:48:51.565Z,97359.70
2018-11-01T10:51:21.016Z,97356.33
2018-11-01T10:53:50.533Z,97350.01
2018-11-01T10:56:20.320Z,97356.21
2018-11-01T10:58:50.085Z,97356.75
2018-11-01T11:01:43.686Z,97363.95
2018-11-01T11:04:13.417Z,97368.95
2018-11-01T11:06:42.905Z,97396.17
2018-11-01T11:09:12.632Z,97400.64
2018-11-01T11:11:42.105Z,97386.31
2018-11-01T11:14:11.854Z,97385.16
2018-11-01T11:16:42.609Z,97396.37
2018-11-01T11:19:12.696Z,97404.55
2018-11-01T11:21:44.255Z,97381.19
2018-11-01T11:24:12.739Z,97374.98
2018-11-01T11:26:42.570Z,97375.59
2018-11-01T11:29:12.298Z,97373.13
2018-11-01T11:31:42.067Z,97382.73
2018-11-01T11:34:11.553Z,97404.27
2018-11-01T11:36:41.610Z,97404.81
2018-11-01T11:39:12.910Z,97410.03
2018-11-01T11:41:43.226Z,97402.48
2018-11-01T11:44:12.740Z,97409.86
2018-11-01T11:46:42.525Z,97425.97
2018-11-01T11:49:12.410Z,97436.97
2018-11-01T11:51:42.515Z,97443.73
2018-11-01T11:54:12.724Z,97454.20
2018-11-01T11:56:42.767Z,97458.66
2018-11-01T11:59:12.673Z,97468.19
2018-11-01T12:01:42.141Z,97470.45
2018-11-01T12:04:12.028Z,97473.23
2018-11-01T12:06:41.572Z,97482.42
2018-11-01T12:09:11.087Z,97494.56
2018-11-01T12:11:40.557Z,97502.96
2018-11-01T12:14:10.127Z,97516.16
2018-11-01T12:16:39.837Z,97514.97
2018-11-01T12:19:10.231Z,97517.21
2018-11-01T12:21:39.936Z,97515.60
2018-11-01T12:24:10.539Z,97518.13
2018-11-01T12:26:39.999Z,97526.83
2018-11-01T12:29:10.086Z,97528.89
2018-11-01T12:31:39.560Z,97534.02
2018-11-01T12:34:09.079Z,97536.65
2018-11-01T12:36:38.844Z,97544.58
2018-11-01T12:39:09.232Z,97548.56
2018-11-01T12:41:39.178Z,97545.83
2018-11-01T12:44:08.543Z,97537.27
2018-11-01T12:46:38.423Z,97535.95
2018-11-01T12:49:08.322Z,97531.44
2018-11-01T12:51:38.045Z,97539.17
2018-11-01T12:54:07.762Z,97529.70
2018-11-01T12:56:37.238Z,97529.48
2018-11-01T12:59:06.940Z,97528.09
2018-11-01T13:01:36.953Z,97525.89
2018-11-01T13:04:06.481Z,97522.11
2018-11-01T13:06:36.379Z,97521.34
2018-11-01T13:09:12.356Z,97517.30
2018-11-01T13:11:41.937Z,97507.94
2018-11-01T13:14:11.472Z,97503.55
2018-11-01T13:16:41.003Z,97501.46
2018-11-01T13:19:10.822Z,97501.57
2018-11-01T13:21:41.104Z,97499.52
2018-11-01T13:24:10.912Z,97494.66
2018-11-01T13:26:40.827Z,97485.06
2018-11-01T13:29:10.489Z,97497.67
2018-11-01T13:31:40.786Z,97495.48
2018-11-01T13:34:10.763Z,97498.71
2018-11-01T13:36:40.633Z,97502.27
2018-11-01T13:39:10.088Z,97511.05
2018-11-01T13:41:40.185Z,97502.84
2018-11-01T13:44:09.541Z,97507.45
2018-11-01T13:46:39.204Z,97509.30
2018-11-01T13:49:09.527Z,97513.67
2018-11-01T13:51:39.586Z,97502.28
2018-11-01T13:54:09.033Z,97523.50
2018-11-01T13:56:39.220Z,97518.90
2018-11-01T13:59:08.677Z,97524.42
2018-11-01T14:01:38.554Z,97525.84
2018-11-01T14:04:08.306Z,97525.84
2018-11-01T14:06:38.060Z,97525.49
2018-11-01T14:09:09.206Z,97523.30
2018-11-01T14:11:39.077Z,97520.18
2018-11-01T14:14:09.783Z,97518.83
2018-11-01T14:16:39.360Z,97522.16
2018-11-01T14:19:09.146Z,97532.66
2018-11-01T14:21:39.127Z,97527.58
2018-11-01T14:24:08.880Z,97527.47
2018-11-01T14:26:38.344Z,97539.81
2018-11-01T14:29:07.833Z,97528.75
2018-11-01T14:31:37.290Z,97521.23
2018-11-01T14:34:07.545Z,97524.70
2018-11-01T14:36:37.408Z,97533.59
2018-11-01T14:39:09.828Z,97533.13
2018-11-01T14:41:39.700Z,97544.75
2018-11-01T14:44:09.550Z,97540.59
2018-11-01T14:46:39.418Z,97548.44
2018-11-01T14:49:08.904Z,97541.66
2018-11-01T14:51:38.822Z,97540.83
2018-11-01T14:54:09.391Z,97546.45
2018-11-01T14:56:39.658Z,97546.64
2018-11-01T14:59:09.637Z,97546.86
2018-11-01T15:01:37.855Z,97542.38
2018-11-01T15:04:07.628Z,97543.05
2018-11-01T15:06:37.548Z,97536.27
2018-11-01T15:09:10.754Z,97535.03
2018-11-01T15:11:40.790Z,97534.55
2018-11-01T15:14:10.272Z,97537.58
2018-11-01T15:16:40.256Z,97540.45
2018-11-01T15:19:10.022Z,97538.44
2018-11-01T15:21:40.343Z,97544.33
2018-11-01T15:24:11.489Z,97540.38
2018-11-01T15:26:40.988Z,97538.22
2018-11-01T15:29:11.324Z,97537.20
2018-11-01T15:31:40.818Z,97547.03
2018-11-01T15:34:10.393Z,97549.38
2018-11-01T15:36:40.321Z,97547.94
2018-11-01T15:39:11.369Z,97555.71
2018-11-01T15:41:41.299Z,97552.95
2018-11-01T15:44:10.746Z,97548.09
2018-11-01T15:46:40.681Z,97547.75
2018-11-01T15:49:10.979Z,97547.43
2018-11-01T15:51:40.415Z,97542.45
2018-11-01T15:54:09.903Z,97544.27
2018-11-01T15:56:39.381Z,97546.28
2018-11-01T15:59:09.176Z,97549.05
2018-11-01T16:01:38.962Z,97544.93
2018-11-01T16:04:09.310Z,97554.30
2018-11-01T16:06:39.524Z,97558.73
2018-11-01T16:09:12.513Z,97552.02
2018-11-01T16:11:42.096Z,97562.57
2018-11-01T16:14:11.912Z,97561.34
2018-11-01T16:16:41.638Z,97563.02
2018-11-01T16:19:11.591Z,97563.12
2018-11-01T16:21:41.375Z,97569.09
2018-11-01T16:24:10.852Z,97568.63
2018-11-01T16:26:41.036Z,97576.09
2018-11-01T16:29:11.683Z,97583.84
2018-11-01T16:31:41.586Z,97599.11
2018-11-01T16:34:11.751Z,97600.92
2018-11-01T16:36:42.153Z,97596.59
2018-11-01T16:39:12.717Z,97599.45
2018-11-01T16:41:42.171Z,97606.06
2018-11-01T16:44:12.355Z,97617.23
2018-11-01T16:46:41.801Z,97626.45
2018-11-01T16:49:11.481Z,97632.84
2018-11-01T16:51:41.233Z,97638.66
2018-11-01T16:54:11.056Z,97648.55
2018-11-01T16:56:40.505Z,97655.59
2018-11-01T16:59:09.992Z,97659.72
2018-11-01T17:01:39.930Z,97654.21
2018-11-01T17:04:09.698Z,97661.35
2018-11-01T17:06:39.506Z,97661.61
2018-11-01T17:09:12.588Z,97664.98
2018-11-01T17:11:42.404Z,97661.74
2018-11-01T17:14:12.182Z,97667.57
2018-11-01T17:16:42.281Z,97666.75
2018-11-01T17:19:11.745Z,97664.89
2018-11-01T17:21:42.064Z,97669.99
2018-11-01T17:24:11.571Z,97668.59
2018-11-01T17:26:41.528Z,97673.25
2018-11-01T17:29:11.375Z,97681.06
2018-11-01T17:31:40.827Z,97679.73
2018-11-01T17:34:10.836Z,97682.48
2018-11-01T17:36:40.204Z,97687.16
2018-11-01T17:39:10.830Z,97690.23
2018-11-01T17:41:40.332Z,97703.05
2018-11-01T17:44:09.917Z,97699.42
2018-11-01T17:46:40.225Z,97696.07
2018-11-01T17:49:09.932Z,97696.95
2018-11-01T17:51:39.368Z,97708.76
2018-11-01T17:54:14.408Z,97714.81
2018-11-01T17:56:44.937Z,97715.74
2018-11-01T17:59:14.460Z,97716.80
2018-11-01T18:01:43.926Z,97720.83
2018-11-01T18:04:13.815Z,97737.11
2018-11-01T18:06:43.324Z,97744.09
2018-11-01T18:09:16.410Z,97757.12
2018-11-01T18:11:46.122Z,97752.30
2018-11-01T18:14:15.662Z,97755.58
2018-11-01T18:16:45.413Z,97760.86
2018-11-01T18:19:14.868Z,97760.27
2018-11-01T18:21:44.366Z,97765.77
2018-11-01T18:24:13.832Z,97767.03
2018-11-01T18:26:43.329Z,97770.92
2018-11-01T18:29:12.784Z,97773.84
2018-11-01T18:31:42.249Z,97780.89
2018-11-01T18:34:11.702Z,97779.19
2018-11-01T18:36:41.556Z,97789.38
2018-11-01T18:39:11.690Z,97792.23
2018-11-01T18:41:41.377Z,97791.03
2018-11-01T18:44:10.893Z,97799.22
2018-11-01T18:46:40.608Z,97809.28
2018-11-01T18:49:10.110Z,97813.84
2018-11-01T18:51:39.567Z,97814.13
2018-11-01T18:54:09.131Z,97822.70
2018-11-01T18:56:38.795Z,97824.70
2018-11-01T18:59:08.732Z,97828.12
2018-11-01T19:01:38.184Z,97833.77
2018-11-01T19:04:08.063Z,97829.64
2018-11-01T19:06:37.920Z,97840.50
2018-11-01T19:09:09.967Z,97855.69
2018-11-01T19:11:39.700Z,97867.09
2018-11-01T19:14:09.704Z,97875.84
2018-11-01T19:16:39.075Z,97878.25
2018-11-01T19:19:08.887Z,97886.68
2018-11-01T19:21:38.949Z,97898.19
2018-11-01T19:24:08.595Z,97911.47
2018-11-01T19:26:38.127Z,97930.74
2018-11-01T19:29:07.583Z,97939.50
2018-11-01T19:31:37.416Z,97962.31
2018-11-01T19:34:07.560Z,98020.22
2018-11-01T19:36:37.523Z,98032.38
2018-11-01T19:39:10.208Z,98021.95
2018-11-01T19:41:40.059Z,98013.81
2018-11-01T19:44:09.856Z,98003.30
2018-11-01T19:46:37.784Z,97996.08
2018-11-01T19:49:07.273Z,97983.90
2018-11-01T19:51:36.713Z,97977.46
2018-11-01T19:54:06.434Z,97963.61
2018-11-01T19:56:36.104Z,97956.06
2018-11-01T19:59:05.965Z,97942.18
2018-11-01T20:01:35.398Z,97936.00
2018-11-01T20:04:05.628Z,97936.06
2018-11-01T20:06:54.290Z,97922.55
2018-11-01T20:09:24.107Z,97920.73
2018-11-01T20:11:54.211Z,97914.00
2018-11-01T20:14:23.654Z,97932.00
2018-11-01T20:16:53.153Z,97945.08
2018-11-01T20:19:23.033Z,97954.84
2018-11-01T20:21:52.578Z,97964.66
2018-11-01T20:24:22.886Z,97968.29
2018-11-01T20:26:52.395Z,97964.86
2018-11-01T20:29:22.103Z,97958.54
2018-11-01T20:31:51.701Z,97959.88
2018-11-01T20:34:21.332Z,97969.91
2018-11-01T20:36:51.040Z,97956.14
2018-11-01T20:39:20.511Z,97952.75
2018-11-01T20:41:49.996Z,97959.45
2018-11-01T20:44:19.444Z,97964.20
2018-11-01T20:46:48.892Z,97961.73
2018-11-01T20:49:18.786Z,97949.97
2018-11-01T20:51:48.641Z,97961.95
2018-11-01T20:54:19.608Z,97976.77
2018-11-01T20:56:49.809Z,97975.62
2018-11-01T20:59:19.245Z,97965.31
2018-11-01T21:01:49.074Z,97943.77
2018-11-01T21:04:19.822Z,97945.14
2018-11-01T21:06:49.289Z,97938.59
2018-11-01T21:09:18.761Z,97954.48
2018-11-01T21:11:48.438Z,97963.88
2018-11-01T21:14:18.038Z,97973.83
2018-11-01T21:16:47.540Z,97975.03
2018-11-01T21:19:17.106Z,97976.98
2018-11-01T21:21:46.859Z,97966.27
2018-11-01T21:24:16.311Z,97969.91
2018-11-01T21:26:45.765Z,97979.85
2018-11-01T21:29:15.681Z,97982.16
2018-11-01T21:31:45.749Z,97986.34
2018-11-01T21:34:15.469Z,97987.53
2018-11-01T21:36:45.302Z,97992.90
2018-11-01T21:39:15.112Z,97988.91
2018-11-01T21:41:44.568Z,97991.66
2018-11-01T21:44:14.064Z,97994.05
2018-11-01T21:46:43.515Z,97988.78
2018-11-01T21:49:13.258Z,98000.19
2018-11-01T21:51:43.035Z,98003.36
2018-11-01T21:54:12.485Z,98001.72
2018-11-01T21:56:42.185Z,98001.16
2018-11-01T21:59:11.914Z,98011.78
2018-11-01T22:01:41.680Z,98016.92
2018-11-01T22:04:11.387Z,98029.06
2018-11-01T22:06:41.152Z,98025.04
2018-11-01T22:09:10.600Z,98024.17
2018-11-01T22:11:40.106Z,98027.47
2018-11-01T22:14:10.178Z,98018.16
2018-11-01T22:16:39.677Z,98010.55
2018-11-01T22:19:09.285Z,98015.00
2018-11-01T22:21:38.777Z,98002.86
2018-11-01T22:24:08.688Z,98000.80
2018-11-01T22:26:38.647Z,97999.42
2018-11-01T22:29:08.104Z,97989.78
2018-11-01T22:31:38.202Z,97999.03
2018-11-01T22:34:08.241Z,97995.09
2018-11-01T22:36:37.719Z,97999.38
2018-11-01T22:39:09.339Z,97992.67
2018-11-01T22:41:38.815Z,97997.34
2018-11-01T22:44:08.351Z,97996.28
2018-11-01T22:46:38.181Z,97992.88
2018-11-01T22:49:07.880Z,98003.98
2018-11-01T22:51:37.606Z,98001.94
2018-11-01T22:54:07.524Z,98008.56
2018-11-01T22:56:37.318Z,98004.80
2018-11-01T22:59:07.286Z,98011.31
2018-11-01T23:01:36.798Z,98016.48
2018-11-01T23:04:06.444Z,98019.81
2018-11-01T23:06:35.943Z,98021.78
2018-11-01T23:09:07.451Z,98021.98
2018-11-01T23:11:36.997Z,98022.05
2018-11-01T23:14:06.481Z,98023.61
2018-11-01T23:16:36.281Z,98035.63
2018-11-01T23:19:05.929Z,98036.52
2018-11-01T23:21:35.748Z,98041.80
2018-11-01T23:24:05.308Z,98043.64
2018-11-01T23:26:34.760Z,98046.77
2018-11-01T23:29:04.218Z,98063.02
2018-11-01T23:31:33.963Z,98061.97
2018-11-01T23:34:03.669Z,98065.27
2018-11-01T23:36:50.286Z,98071.67
2018-11-01T23:39:37.884Z,98066.02
2018-11-01T23:42:24.967Z,98062.72
2018-11-01T23:45:11.862Z,98073.39
2018-11-01T23:47:58.944Z,98064.95
2018-11-01T23:50:34.153Z,98071.30
2018-11-01T23:53:07.005Z,98066.05
2018-11-01T23:55:36.442Z,98067.55
2018-11-01T23:58:06.560Z,98070.81
